1919 NOT_NAMED (1919212N16111)


IBTrACS version v04r00. Visit IBTrACS website for data access.
Please direct all questions to the IBTrACS Q and A forum

Storm track - Intensity - Wind Radii - Intensity Data - Source Data - All data

Summary Information

Storm ID 1919212N16111
Start Jul 30 22Z
Landfall Aug 2 12Z
End Aug 2 22Z
ATCF IDs
Track status Best track data.

Storm track plot

Map of storm track

Intensity plots

No Intensity information for this storm


Radial wind information

No radial wind information for this storm


Position and Intensity Table

BASIN ISO_TIME_________ NATURE LAT LON
degrees north degrees east
WP 1919-07-30 22:00:00 NR 16.40 111.20
WP 1919-07-31 00:00:00 NR 16.46 111.31
WP 03:00:00 NR 16.54 111.47
WP 06:00:00 NR 16.61 111.62
WP 09:00:00 NR 16.68 111.76
WP 10:00:00 NR 16.70 111.80
WP 12:00:00 NR 16.74 111.87
WP 15:00:00 NR 16.79 111.98
WP 18:00:00 NR 16.86 112.12
WP 21:00:00 NR 16.96 112.32
WP 22:00:00 NR 17.00 112.40
WP 1919-08-01 00:00:00 NR 17.09 112.63
WP 03:00:00 NR 17.26 113.04
WP 06:00:00 NR 17.47 113.48
WP 09:00:00 NR 17.71 113.88
WP 10:00:00 NR 17.80 114.00
WP 12:00:00 NR 17.96 114.24
WP 15:00:00 NR 18.22 114.54
WP 18:00:00 NR 18.54 114.75
WP 21:00:00 NR 18.95 114.82
WP 22:00:00 NR 19.10 114.80
WP 1919-08-02 00:00:00 NR 19.44 114.71
WP 03:00:00 NR 20.03 114.44
WP 06:00:00 NR 20.69 114.04
WP 09:00:00 NR 21.37 113.57
WP 10:00:00 NR 21.60 113.40
WP 12:00:00 NR 22.06 113.06
WP 15:00:00 NR 22.74 112.54
WP 18:00:00 NR 23.41 112.02
WP 21:00:00 NR 24.08 111.48
WP 22:00:00 NR 24.30 111.30

Source Information

Agency Information
USA
TOKYO
CMA
HKO
NEWDELHI
REUNION
BOM
NADI
WELLINGTON
DS824
TD9636 cons_worldwide_trop_cyclone_18710101-19891231-003:Line=5893
TD9635
NEUMANN
MLC

All available IBTrACS Data

SEASON BASIN SUBBASIN ISO_TIME_________ NATURE LAT LON DIST2LAND LANDFALL IFLAG USA SSHS TD9636 LAT TD9636 LON TD9636 STAGE STORM SPEED STORM DIR
Year degrees north degrees east km km 1 degrees north degrees east kts degrees
1919 WP MM 1919-07-30 22:00:00 NR 16.40 111.20 256 253 __________O___ -1 16.40 111.20 4 4 62
1919 WP MM 1919-07-31 00:00:00 NR 16.46 111.31 253 253 __________P___ -1 16.46 111.31 4 4 62
1919 WP MM 03:00:00 NR 16.54 111.47 265 256 __________P___ -1 16.54 111.47 4 3 63
1919 WP MM 06:00:00 NR 16.61 111.62 263 262 __________P___ -1 16.61 111.62 4 3 62
1919 WP MM 09:00:00 NR 16.68 111.76 268 268 __________P___ -1 16.68 111.76 4 3 63
1919 WP MM 10:00:00 NR 16.70 111.80 268 268 __________O___ -1 16.70 111.80 4 2 63
1919 WP MM 12:00:00 NR 16.74 111.87 274 265 __________P___ -1 16.74 111.87 4 2 62
1919 WP MM 15:00:00 NR 16.79 111.98 271 270 __________P___ -1 16.79 111.98 4 3 63
1919 WP MM 18:00:00 NR 16.86 112.12 270 270 __________P___ -1 16.86 112.12 4 4 62
1919 WP MM 21:00:00 NR 16.96 112.32 276 276 __________P___ -1 16.96 112.32 4 5 62
1919 WP MM 22:00:00 NR 17.00 112.40 284 284 __________O___ -1 17.00 112.40 7 7 66
1919 WP MM 1919-08-01 00:00:00 NR 17.09 112.63 292 300 __________P___ -1 17.09 112.63 7 8 67
1919 WP MM 03:00:00 NR 17.26 113.04 313 322 __________P___ -1 17.26 113.04 7 9 65
1919 WP MM 06:00:00 NR 17.47 113.48 348 348 __________P___ -1 17.47 113.48 7 9 61
1919 WP MM 09:00:00 NR 17.71 113.88 372 365 __________P___ -1 17.71 113.88 7 9 56
1919 WP MM 10:00:00 NR 17.80 114.00 374 374 __________O___ -1 17.80 114.00 7 8 54
1919 WP MM 12:00:00 NR 17.96 114.24 381 390 __________P___ -1 17.96 114.24 7 8 51
1919 WP MM 15:00:00 NR 18.22 114.54 400 405 __________P___ -1 18.22 114.54 7 8 40
1919 WP MM 18:00:00 NR 18.54 114.75 407 383 __________P___ -1 18.54 114.75 7 8 20
1919 WP MM 21:00:00 NR 18.95 114.82 383 361 __________P___ -1 18.95 114.82 7 8 5
1919 WP MM 22:00:00 NR 19.10 114.80 361 326 __________O___ -1 19.10 114.80 2 10 349
1919 WP MM 1919-08-02 00:00:00 NR 19.44 114.71 326 257 __________P___ -1 19.44 114.71 2 12 340
1919 WP MM 03:00:00 NR 20.03 114.44 257 169 __________P___ -1 20.03 114.44 2 14 333
1919 WP MM 06:00:00 NR 20.69 114.04 169 83 __________P___ -1 20.69 114.04 2 16 329
1919 WP MM 09:00:00 NR 21.37 113.57 83 53 __________P___ -1 21.37 113.57 2 16 327
1919 WP MM 10:00:00 NR 21.60 113.40 53 0 __________O___ -1 21.60 113.40 2 17 326
1919 WP MM 12:00:00 NR 22.06 113.06 0 0 __________P___ -1 22.06 113.06 2 17 325
1919 WP MM 15:00:00 NR 22.74 112.54 0 0 __________P___ -1 22.74 112.54 2 17 325
1919 WP MM 18:00:00 NR 23.41 112.02 0 0 __________P___ -1 23.41 112.02 2 17 324
1919 WP MM 21:00:00 NR 24.08 111.48 0 0 __________P___ -1 24.08 111.48 2 17 324
1919 WP MM 22:00:00 NR 24.30 111.30 0 __________O___ -1 24.30 111.30 7 17 323